createdAt,value
2018-08-27T00:01:42.392Z,1.63
2018-08-27T00:04:11.430Z,1.83
2018-08-27T00:06:39.834Z,1.80
2018-08-27T00:09:10.053Z,1.70
2018-08-27T00:11:38.540Z,2.20
2018-08-27T00:14:06.968Z,2.10
2018-08-27T00:16:35.437Z,1.70
2018-08-27T00:19:04.019Z,1.73
2018-08-27T00:21:32.461Z,2.30
2018-08-27T00:24:00.816Z,1.90
2018-08-27T00:26:29.229Z,1.67
2018-08-27T00:28:57.678Z,2.00
2018-08-27T00:31:26.104Z,1.90
2018-08-27T00:33:54.533Z,1.87
2018-08-27T00:36:22.924Z,1.87
2018-08-27T00:38:51.336Z,1.60
2018-08-27T00:41:19.785Z,1.60
2018-08-27T00:43:48.205Z,2.40
2018-08-27T00:46:16.625Z,2.00
2018-08-27T00:48:45.032Z,2.10
2018-08-27T00:51:13.470Z,1.90
2018-08-27T00:53:41.841Z,1.50
2018-08-27T00:56:10.244Z,2.20
2018-08-27T00:58:39.231Z,1.87
2018-08-27T01:01:07.658Z,1.90
2018-08-27T01:03:36.176Z,2.30
2018-08-27T01:06:04.547Z,2.33
2018-08-27T01:08:32.934Z,2.17
2018-08-27T01:11:01.389Z,2.93
2018-08-27T01:13:29.798Z,2.00
2018-08-27T01:15:58.207Z,2.10
2018-08-27T01:18:26.655Z,1.50
2018-08-27T01:20:55.124Z,2.53
2018-08-27T01:23:23.844Z,1.90
2018-08-27T01:25:52.289Z,2.17
2018-08-27T01:28:21.403Z,1.90
2018-08-27T01:30:49.829Z,2.00
2018-08-27T01:33:18.341Z,1.90
2018-08-27T01:35:46.777Z,2.13
2018-08-27T01:38:15.300Z,2.50
2018-08-27T01:40:43.750Z,2.10
2018-08-27T01:43:12.163Z,2.10
2018-08-27T01:45:40.564Z,2.30
2018-08-27T01:48:09.037Z,1.60
2018-08-27T01:50:37.675Z,2.20
2018-08-27T01:53:06.131Z,2.10
2018-08-27T01:55:34.518Z,2.50
2018-08-27T01:58:03.213Z,2.10
2018-08-27T02:00:31.616Z,2.10
2018-08-27T02:03:00.021Z,2.50
2018-08-27T02:05:28.454Z,2.07
2018-08-27T02:07:56.860Z,2.50
2018-08-27T02:10:25.352Z,2.20
2018-08-27T02:12:53.748Z,2.20
2018-08-27T02:15:22.201Z,2.40
2018-08-27T02:17:50.688Z,2.23
2018-08-27T02:20:19.094Z,1.87
2018-08-27T02:22:47.492Z,2.40
2018-08-27T02:25:15.919Z,2.40
2018-08-27T02:27:44.354Z,2.33
2018-08-27T02:30:12.728Z,2.37
2018-08-27T02:32:41.116Z,2.33
2018-08-27T02:35:09.573Z,2.03
2018-08-27T02:37:37.912Z,2.30
2018-08-27T02:40:06.421Z,2.40
2018-08-27T02:42:34.793Z,2.10
2018-08-27T02:45:03.272Z,2.60
2018-08-27T02:47:31.687Z,2.50
2018-08-27T02:50:00.147Z,2.00
2018-08-27T02:52:28.523Z,2.30
2018-08-27T02:54:56.936Z,2.33
2018-08-27T02:57:25.404Z,2.60
2018-08-27T02:59:53.809Z,2.17
2018-08-27T03:02:22.208Z,2.23
2018-08-27T03:04:50.660Z,2.43
2018-08-27T03:07:19.126Z,2.37
2018-08-27T03:09:47.514Z,2.50
2018-08-27T03:12:15.954Z,2.50
2018-08-27T03:14:44.372Z,2.60
2018-08-27T03:17:12.765Z,2.73
2018-08-27T03:19:41.192Z,2.17
2018-08-27T03:22:09.614Z,2.10
2018-08-27T03:24:38.062Z,1.90
2018-08-27T03:27:06.535Z,1.97
2018-08-27T03:29:34.900Z,2.27
2018-08-27T03:32:03.345Z,2.60
2018-08-27T03:34:31.792Z,2.40
2018-08-27T03:37:00.273Z,3.10
2018-08-27T03:39:28.664Z,2.73
2018-08-27T03:41:57.145Z,2.30
2018-08-27T03:44:25.567Z,2.63
2018-08-27T03:46:54.000Z,2.57
2018-08-27T03:49:22.380Z,2.50
2018-08-27T03:51:50.801Z,2.53
2018-08-27T03:54:19.434Z,2.47
2018-08-27T03:56:47.809Z,2.80
2018-08-27T03:59:16.216Z,2.77
2018-08-27T04:01:44.629Z,2.63
2018-08-27T04:04:13.040Z,2.87
2018-08-27T04:06:41.454Z,2.93
2018-08-27T04:09:10.469Z,2.93
2018-08-27T04:11:38.849Z,2.67
2018-08-27T04:14:07.248Z,2.77
2018-08-27T04:16:35.660Z,2.60
2018-08-27T04:19:04.102Z,2.00
2018-08-27T04:21:32.705Z,2.87
2018-08-27T04:24:01.103Z,2.77
2018-08-27T04:26:29.514Z,2.77
2018-08-27T04:28:57.971Z,3.10
2018-08-27T04:31:26.392Z,3.40
2018-08-27T04:33:54.835Z,2.87
2018-08-27T04:36:23.273Z,2.80
2018-08-27T04:38:51.669Z,3.70
2018-08-27T04:41:20.076Z,2.80
2018-08-27T04:43:48.489Z,2.93
2018-08-27T04:46:16.880Z,2.53
2018-08-27T04:48:45.411Z,3.00
2018-08-27T04:51:13.851Z,3.30
2018-08-27T04:53:42.334Z,2.70
2018-08-27T04:56:10.781Z,3.10
2018-08-27T04:58:42.042Z,2.40
2018-08-27T05:01:10.460Z,2.80
2018-08-27T05:03:38.867Z,2.93
2018-08-27T05:06:07.250Z,3.00
2018-08-27T05:08:35.623Z,2.40
2018-08-27T05:11:04.083Z,2.50
2018-08-27T05:13:32.483Z,3.10
2018-08-27T05:16:00.868Z,3.57
2018-08-27T05:18:29.295Z,3.10
2018-08-27T05:20:57.720Z,3.00
2018-08-27T05:23:26.155Z,4.50
2018-08-27T05:25:54.732Z,3.27
2018-08-27T05:28:23.165Z,2.87
2018-08-27T05:30:51.637Z,2.50
2018-08-27T05:33:20.703Z,3.60
2018-08-27T05:35:49.072Z,2.60
2018-08-27T05:38:17.639Z,2.70
2018-08-27T05:40:46.032Z,2.50
2018-08-27T05:43:14.470Z,3.47
2018-08-27T05:45:42.863Z,3.00
2018-08-27T05:48:11.300Z,3.23
2018-08-27T05:50:39.660Z,3.30
2018-08-27T05:53:08.081Z,3.40
2018-08-27T05:55:36.477Z,3.10
2018-08-27T05:58:04.941Z,3.07
2018-08-27T06:00:33.331Z,3.03
2018-08-27T06:03:01.700Z,4.17
2018-08-27T06:05:30.120Z,2.77
2018-08-27T06:07:58.523Z,3.23
2018-08-27T06:10:26.936Z,3.30
2018-08-27T06:12:55.360Z,3.00
2018-08-27T06:15:23.789Z,3.23
2018-08-27T06:17:52.203Z,3.50
2018-08-27T06:20:21.061Z,3.07
2018-08-27T06:22:49.442Z,3.20
2018-08-27T06:25:19.252Z,3.53
2018-08-27T06:27:47.652Z,3.70
2018-08-27T06:30:16.081Z,3.23
2018-08-27T06:32:44.516Z,3.23
2018-08-27T06:35:12.906Z,3.83
2018-08-27T06:37:41.319Z,3.97
2018-08-27T06:40:09.832Z,3.83
2018-08-27T06:42:38.267Z,3.67
2018-08-27T06:45:07.264Z,3.70
2018-08-27T06:47:35.719Z,3.47
2018-08-27T06:50:04.240Z,3.87
2018-08-27T06:52:32.640Z,3.50
2018-08-27T06:55:01.016Z,3.70
2018-08-27T06:57:29.510Z,5.30
2018-08-27T06:59:57.898Z,4.03
2018-08-27T07:02:26.346Z,3.90
2018-08-27T07:04:54.824Z,4.17
2018-08-27T07:07:23.268Z,4.07
2018-08-27T07:09:51.674Z,4.43
2018-08-27T07:12:20.063Z,4.40
2018-08-27T07:14:48.465Z,4.20
2018-08-27T07:17:16.884Z,4.87
2018-08-27T07:19:45.358Z,4.37
2018-08-27T07:22:13.804Z,3.60
2018-08-27T07:24:42.177Z,4.00
2018-08-27T07:27:10.618Z,3.57
2018-08-27T07:29:39.125Z,3.63
2018-08-27T07:32:07.534Z,4.07
2018-08-27T07:34:35.954Z,4.33
2018-08-27T07:37:04.375Z,4.60
2018-08-27T07:39:32.817Z,5.33
2018-08-27T07:42:01.629Z,3.93
2018-08-27T07:44:30.111Z,3.50
2018-08-27T07:46:58.588Z,3.80
2018-08-27T07:49:27.859Z,2.97
2018-08-27T07:51:56.466Z,3.97
2018-08-27T07:54:24.913Z,3.73
2018-08-27T07:56:53.376Z,3.47
2018-08-27T07:59:21.757Z,4.07
2018-08-27T08:01:50.165Z,3.70
2018-08-27T08:04:18.641Z,4.37
2018-08-27T08:06:47.686Z,3.93
2018-08-27T08:09:16.145Z,3.10
2018-08-27T08:11:44.596Z,3.70
2018-08-27T08:14:13.134Z,3.40
2018-08-27T08:16:41.573Z,4.10
2018-08-27T08:19:10.032Z,3.67
2018-08-27T08:21:38.438Z,3.80
2018-08-27T08:24:07.011Z,3.73
2018-08-27T08:26:35.473Z,3.70
2018-08-27T08:29:03.930Z,3.33
2018-08-27T08:31:32.361Z,3.60
2018-08-27T08:34:00.788Z,3.70
2018-08-27T08:36:29.203Z,4.07
2018-08-27T08:38:57.665Z,3.77
2018-08-27T08:41:26.092Z,4.10
2018-08-27T08:43:54.496Z,3.30
2018-08-27T08:46:23.542Z,3.67
2018-08-27T08:48:52.033Z,3.53
2018-08-27T08:51:20.509Z,3.60
2018-08-27T08:53:48.968Z,3.20
2018-08-27T08:56:17.388Z,3.80
2018-08-27T08:58:45.883Z,3.90
2018-08-27T09:01:14.314Z,3.80
2018-08-27T09:03:42.737Z,4.00
2018-08-27T09:06:11.164Z,3.47
2018-08-27T09:08:39.696Z,3.87
2018-08-27T09:11:08.089Z,3.87
2018-08-27T09:13:36.538Z,3.77
2018-08-27T09:16:05.120Z,4.07
2018-08-27T09:18:33.831Z,3.87
2018-08-27T09:21:02.315Z,4.13
2018-08-27T09:23:30.848Z,3.30
2018-08-27T09:25:59.376Z,4.57
2018-08-27T09:28:27.773Z,3.37
2018-08-27T09:30:56.222Z,4.10
2018-08-27T09:33:24.638Z,4.13
2018-08-27T09:35:53.124Z,3.60
2018-08-27T09:38:21.588Z,3.40
2018-08-27T09:40:50.049Z,3.90
2018-08-27T09:43:18.784Z,3.77
2018-08-27T09:45:47.264Z,3.90
2018-08-27T09:48:15.699Z,3.70
2018-08-27T09:50:44.124Z,3.40
2018-08-27T09:53:12.597Z,3.47
2018-08-27T09:55:41.124Z,3.80
2018-08-27T09:58:09.525Z,3.70
2018-08-27T10:00:43.301Z,3.80
2018-08-27T10:03:11.692Z,4.07
2018-08-27T10:05:40.078Z,4.20
2018-08-27T10:08:08.489Z,3.90
2018-08-27T10:10:36.932Z,4.10
2018-08-27T10:13:05.532Z,3.97
2018-08-27T10:15:33.921Z,3.73
2018-08-27T10:18:02.393Z,4.57
2018-08-27T10:20:30.886Z,4.23
2018-08-27T10:22:59.388Z,5.33
2018-08-27T10:25:27.849Z,5.33
2018-08-27T10:27:56.278Z,5.37
2018-08-27T10:30:24.722Z,4.83
2018-08-27T10:32:53.169Z,5.77
2018-08-27T10:35:22.207Z,5.17
2018-08-27T10:37:50.667Z,5.27
2018-08-27T10:40:19.073Z,5.17
2018-08-27T10:42:47.580Z,5.03
2018-08-27T10:45:15.994Z,5.77
2018-08-27T10:47:44.436Z,5.83
2018-08-27T10:50:12.959Z,5.73
2018-08-27T10:52:41.329Z,5.30
2018-08-27T10:55:09.776Z,4.80
2018-08-27T10:57:38.241Z,3.30
2018-08-27T11:00:07.642Z,3.87
2018-08-27T11:02:36.077Z,4.30
2018-08-27T11:05:04.720Z,4.37
2018-08-27T11:07:33.461Z,3.60
2018-08-27T11:10:01.918Z,3.67
2018-08-27T11:12:30.460Z,3.67
2018-08-27T11:14:58.969Z,4.43
2018-08-27T11:17:27.420Z,4.27
2018-08-27T11:19:55.945Z,3.90
2018-08-27T11:22:24.363Z,3.90
2018-08-27T11:24:53.432Z,3.60
2018-08-27T11:27:21.894Z,3.80
2018-08-27T11:29:50.349Z,4.10
2018-08-27T11:32:18.825Z,4.83
2018-08-27T11:34:47.253Z,3.90
2018-08-27T11:37:15.732Z,3.97
2018-08-27T11:39:44.203Z,3.50
2018-08-27T11:42:12.661Z,4.50
2018-08-27T11:44:41.134Z,3.80
2018-08-27T11:47:10.452Z,4.07
2018-08-27T11:49:38.894Z,4.13
2018-08-27T11:52:07.337Z,3.97
2018-08-27T11:54:35.831Z,4.13
2018-08-27T11:57:04.251Z,3.90
2018-08-27T11:59:32.688Z,3.90
2018-08-27T12:02:01.201Z,4.20
2018-08-27T12:04:29.749Z,3.80
2018-08-27T12:06:58.241Z,3.87
2018-08-27T12:09:26.653Z,3.87
2018-08-27T12:11:55.105Z,3.67
2018-08-27T12:14:23.572Z,3.70
2018-08-27T12:16:52.066Z,4.30
2018-08-27T12:19:20.426Z,4.50
2018-08-27T12:21:48.947Z,3.73
2018-08-27T12:24:17.346Z,4.00
2018-08-27T12:26:45.971Z,4.23
2018-08-27T12:29:14.405Z,4.43
2018-08-27T12:31:42.853Z,3.67
2018-08-27T12:34:11.247Z,4.47
2018-08-27T12:36:39.704Z,4.83
2018-08-27T12:39:09.584Z,4.83
2018-08-27T12:41:38.444Z,3.37
2018-08-27T12:44:06.931Z,4.77
2018-08-27T12:46:35.313Z,4.90
2018-08-27T12:49:04.606Z,5.50
2018-08-27T12:51:33.098Z,4.13
2018-08-27T12:54:01.536Z,4.03
2018-08-27T12:56:30.150Z,4.50
2018-08-27T12:58:58.666Z,3.87
2018-08-27T13:01:27.026Z,4.47
2018-08-27T13:03:55.504Z,4.30
2018-08-27T13:06:23.931Z,4.50
2018-08-27T13:08:52.386Z,4.50
2018-08-27T13:11:20.970Z,4.17
2018-08-27T13:13:49.334Z,4.30
2018-08-27T13:16:17.832Z,4.77
2018-08-27T13:18:47.099Z,4.63
2018-08-27T13:21:20.737Z,4.83
2018-08-27T13:23:49.376Z,4.60
2018-08-27T13:26:17.792Z,4.10
2018-08-27T13:28:46.229Z,4.40
2018-08-27T13:31:14.836Z,5.13
2018-08-27T13:33:43.746Z,5.13
2018-08-27T13:36:12.358Z,4.20
2018-08-27T13:38:40.749Z,4.57
2018-08-27T13:41:09.301Z,4.87
2018-08-27T13:43:37.755Z,4.93
2018-08-27T13:46:06.173Z,5.27
2018-08-27T13:48:34.983Z,4.40
2018-08-27T13:51:03.404Z,4.27
2018-08-27T13:53:32.305Z,4.40
2018-08-27T13:56:00.729Z,4.07
2018-08-27T13:58:29.115Z,4.60
2018-08-27T14:00:57.533Z,4.13
2018-08-27T14:03:25.967Z,5.10
2018-08-27T14:05:54.380Z,4.50
2018-08-27T14:08:23.653Z,4.90
2018-08-27T14:10:52.172Z,4.83
2018-08-27T14:13:20.557Z,5.10
2018-08-27T14:15:50.197Z,4.70
2018-08-27T14:18:18.503Z,4.90
2018-08-27T14:20:47.042Z,4.00
2018-08-27T14:23:15.410Z,4.93
2018-08-27T14:25:44.678Z,4.33
2018-08-27T14:28:13.283Z,4.47
2018-08-27T14:30:41.729Z,4.83
2018-08-27T14:33:11.198Z,4.97
2018-08-27T14:35:39.621Z,4.07
2018-08-27T14:38:09.704Z,4.80
2018-08-27T14:40:39.757Z,4.20
2018-08-27T14:43:09.145Z,4.57
2018-08-27T14:45:37.557Z,4.17
2018-08-27T14:48:06.128Z,4.13
2018-08-27T14:50:34.494Z,4.90
2018-08-27T14:53:03.151Z,4.93
2018-08-27T14:55:31.589Z,4.40
2018-08-27T14:58:00.033Z,4.47
2018-08-27T15:00:28.449Z,5.97
2018-08-27T15:02:56.918Z,4.87
2018-08-27T15:05:25.333Z,4.80
2018-08-27T15:07:53.749Z,4.80
2018-08-27T15:10:22.181Z,5.10
2018-08-27T15:12:52.460Z,5.20
2018-08-27T15:15:21.127Z,4.50
2018-08-27T15:17:49.488Z,4.63
2018-08-27T15:20:17.960Z,4.87
2018-08-27T15:22:47.357Z,4.90
2018-08-27T15:25:16.019Z,4.57
2018-08-27T15:27:44.462Z,4.60
2018-08-27T15:30:13.454Z,5.00
2018-08-27T15:32:41.963Z,5.37
2018-08-27T15:35:10.383Z,4.77
2018-08-27T15:37:38.845Z,4.80
2018-08-27T15:40:07.721Z,4.90
2018-08-27T15:42:36.721Z,5.00
2018-08-27T15:45:07.169Z,5.20
2018-08-27T15:47:36.386Z,5.13
2018-08-27T15:50:05.015Z,4.80
2018-08-27T15:52:33.325Z,5.27
2018-08-27T15:55:01.726Z,5.03
2018-08-27T15:57:35.513Z,4.23
2018-08-27T16:00:04.275Z,4.33
2018-08-27T16:02:32.634Z,4.90
2018-08-27T16:05:01.118Z,6.13
2018-08-27T16:07:29.484Z,5.00
2018-08-27T16:09:57.889Z,5.40
2018-08-27T16:12:26.714Z,4.33
2018-08-27T16:14:55.113Z,4.50
2018-08-27T16:17:23.506Z,5.03
2018-08-27T16:19:51.974Z,4.70
2018-08-27T16:22:20.388Z,5.10
2018-08-27T16:24:48.829Z,5.90
2018-08-27T16:27:17.364Z,5.37
2018-08-27T16:29:45.820Z,20.60
2018-08-27T16:32:14.310Z,9.30
2018-08-27T16:34:42.719Z,4.47
2018-08-27T16:37:11.545Z,4.30
2018-08-27T16:39:40.194Z,4.40
2018-08-27T16:42:08.389Z,4.73
2018-08-27T16:44:36.804Z,4.27
2018-08-27T16:47:05.272Z,4.33
2018-08-27T16:49:33.774Z,4.80
2018-08-27T16:52:02.224Z,3.90
2018-08-27T16:54:30.665Z,4.77
2018-08-27T16:56:59.157Z,5.33
2018-08-27T16:59:27.644Z,4.63
2018-08-27T17:01:56.104Z,4.97
2018-08-27T17:04:25.536Z,5.30
2018-08-27T17:06:53.993Z,4.13
2018-08-27T17:09:22.438Z,4.40
2018-08-27T17:11:50.861Z,4.30
2018-08-27T17:14:19.306Z,4.90
2018-08-27T17:16:47.763Z,4.40
2018-08-27T17:19:16.251Z,4.83
2018-08-27T17:21:45.444Z,5.07
2018-08-27T17:24:14.324Z,4.60
2018-08-27T17:26:43.177Z,5.23
2018-08-27T17:29:12.097Z,4.60
2018-08-27T17:31:40.532Z,5.23
2018-08-27T17:34:09.057Z,5.90
2018-08-27T17:36:37.640Z,5.97
2018-08-27T17:39:08.947Z,5.47
2018-08-27T17:41:37.996Z,6.13
2018-08-27T17:44:06.889Z,6.67
2018-08-27T17:46:35.522Z,5.90
2018-08-27T17:49:04.133Z,5.67
2018-08-27T17:51:32.826Z,6.63
2018-08-27T17:54:01.280Z,5.70
2018-08-27T17:56:29.768Z,5.90
2018-08-27T17:58:58.200Z,6.07
2018-08-27T18:01:26.791Z,6.20
2018-08-27T18:03:55.420Z,7.57
2018-08-27T18:06:23.917Z,7.67
2018-08-27T18:08:52.541Z,6.70
2018-08-27T18:11:21.248Z,7.63
2018-08-27T18:13:49.712Z,7.43
2018-08-27T18:16:18.215Z,8.07
2018-08-27T18:18:48.421Z,6.80
2018-08-27T18:21:17.129Z,8.17
2018-08-27T18:23:45.571Z,8.03
2018-08-27T18:26:14.296Z,7.40
2018-08-27T18:28:42.862Z,8.27
2018-08-27T18:31:11.534Z,8.50
2018-08-27T18:33:40.354Z,8.73
2018-08-27T18:36:08.816Z,8.07
2018-08-27T18:38:37.528Z,7.87
2018-08-27T18:41:06.238Z,8.00
2018-08-27T18:43:35.024Z,8.53
2018-08-27T18:46:03.488Z,7.77
2018-08-27T18:48:32.128Z,8.50
2018-08-27T18:51:00.958Z,7.47
2018-08-27T18:53:30.445Z,7.47
2018-08-27T18:55:59.208Z,8.07
2018-08-27T18:58:27.715Z,7.20
2018-08-27T19:00:56.507Z,7.70
2018-08-27T19:03:25.273Z,7.57
2018-08-27T19:05:54.012Z,7.67
2018-08-27T19:08:22.794Z,8.13
2018-08-27T19:10:51.587Z,7.30
2018-08-27T19:13:20.382Z,7.93
2018-08-27T19:15:50.338Z,7.97
2018-08-27T19:18:19.115Z,8.17
2018-08-27T19:20:47.964Z,7.93
2018-08-27T19:23:16.780Z,8.13
2018-08-27T19:25:47.794Z,7.70
2018-08-27T19:28:16.591Z,7.90
2018-08-27T19:30:45.348Z,7.90
2018-08-27T19:33:14.134Z,7.63
2018-08-27T19:35:43.098Z,7.30
2018-08-27T19:38:11.750Z,7.00
2018-08-27T19:40:40.452Z,6.10
2018-08-27T19:43:09.217Z,6.70
2018-08-27T19:45:38.041Z,6.73
2018-08-27T19:48:06.601Z,7.40
2018-08-27T19:50:35.658Z,6.90
2018-08-27T19:53:04.112Z,6.70
2018-08-27T19:55:32.537Z,6.57
2018-08-27T19:58:00.986Z,7.00
2018-08-27T20:00:29.597Z,6.50
2018-08-27T20:02:58.028Z,6.27
2018-08-27T20:05:27.208Z,6.00
2018-08-27T20:07:55.990Z,6.57
2018-08-27T20:10:24.505Z,8.63
2018-08-27T20:12:53.624Z,7.30
2018-08-27T20:15:22.045Z,5.23
2018-08-27T20:17:50.479Z,6.20
2018-08-27T20:20:19.007Z,5.70
2018-08-27T20:22:48.400Z,5.97
2018-08-27T20:25:16.823Z,7.80
2018-08-27T20:27:45.317Z,6.00
2018-08-27T20:30:13.701Z,6.43
2018-08-27T20:32:42.102Z,5.83
2018-08-27T20:35:10.526Z,5.93
2018-08-27T20:37:38.919Z,5.90
2018-08-27T20:40:07.468Z,5.50
2018-08-27T20:42:35.929Z,6.30
2018-08-27T20:45:04.548Z,5.93
2018-08-27T20:47:32.899Z,5.93
2018-08-27T20:50:01.392Z,6.53
2018-08-27T20:52:29.840Z,6.07
2018-08-27T20:54:58.408Z,8.10
2018-08-27T20:57:26.907Z,15.97
2018-08-27T20:59:55.329Z,7.93
2018-08-27T21:02:23.757Z,7.77
2018-08-27T21:04:52.182Z,6.80
2018-08-27T21:07:20.635Z,5.90
2018-08-27T21:09:49.070Z,5.70
2018-08-27T21:12:17.564Z,6.30
2018-08-27T21:15:08.744Z,6.17
2018-08-27T21:17:37.845Z,5.77
2018-08-27T21:20:08.452Z,5.77
2018-08-27T21:22:36.935Z,6.50
2018-08-27T21:25:06.383Z,5.70
2018-08-27T21:27:35.415Z,5.57
2018-08-27T21:30:03.984Z,5.30
2018-08-27T21:32:32.452Z,7.80
2018-08-27T21:35:00.828Z,10.27
2018-08-27T21:37:29.337Z,6.10
2018-08-27T21:39:58.658Z,6.03
2018-08-27T21:42:27.109Z,5.77
2018-08-27T21:44:55.589Z,7.53
2018-08-27T21:47:24.016Z,6.30
2018-08-27T21:49:52.539Z,6.60
2018-08-27T21:52:20.986Z,6.00
2018-08-27T21:54:49.448Z,5.83
2018-08-27T21:57:17.796Z,6.00
2018-08-27T21:59:46.201Z,5.77
2018-08-27T22:02:19.915Z,6.50
2018-08-27T22:04:48.359Z,5.87
2018-08-27T22:07:16.868Z,5.70
2018-08-27T22:09:45.356Z,5.57
2018-08-27T22:12:13.781Z,6.37
2018-08-27T22:14:42.192Z,7.00
2018-08-27T22:17:10.863Z,5.97
2018-08-27T22:19:40.158Z,8.00
2018-08-27T22:22:08.660Z,5.53
2018-08-27T22:24:37.021Z,7.63
2018-08-27T22:27:05.508Z,8.87
2018-08-27T22:29:33.949Z,6.73
2018-08-27T22:32:02.418Z,6.57
2018-08-27T22:34:31.253Z,6.97
2018-08-27T22:36:59.941Z,5.40
2018-08-27T22:39:28.356Z,6.23
2018-08-27T22:41:56.866Z,5.60
2018-08-27T22:44:25.257Z,5.50
2018-08-27T22:46:53.656Z,6.23
2018-08-27T22:49:22.067Z,6.70
2018-08-27T22:51:50.510Z,5.30
2018-08-27T22:54:18.941Z,6.03
2018-08-27T22:56:47.340Z,6.30
2018-08-27T22:59:15.766Z,5.90
2018-08-27T23:01:44.344Z,5.80
2018-08-27T23:05:16.825Z,6.03
2018-08-27T23:07:45.341Z,5.30
2018-08-27T23:10:13.745Z,5.43
2018-08-27T23:12:42.141Z,5.27
2018-08-27T23:15:10.644Z,5.93
2018-08-27T23:17:39.032Z,5.30
2018-08-27T23:20:07.514Z,5.20
2018-08-27T23:22:36.881Z,5.40
2018-08-27T23:25:05.672Z,5.70
2018-08-27T23:27:34.154Z,5.37
2018-08-27T23:30:02.591Z,5.60
2018-08-27T23:32:30.968Z,5.37
2018-08-27T23:34:59.357Z,5.27
2018-08-27T23:37:27.859Z,5.33
2018-08-27T23:39:56.287Z,5.43
2018-08-27T23:42:24.751Z,5.53
2018-08-27T23:44:53.132Z,6.07
2018-08-27T23:47:21.536Z,9.97
2018-08-27T23:49:50.085Z,6.03
2018-08-27T23:52:18.521Z,6.60
2018-08-27T23:54:46.962Z,6.00
2018-08-27T23:57:15.341Z,5.60
2018-08-27T23:59:43.720Z,5.10
